Time;durP1;ratioP1;P1;durP2;ratioP2;P2;SDS_P1;SDS_P2;PMS_P1;PMS_P2;Temp;Humidity;BMP_temperature;BMP_pressure;BME280_temperature;BME280_humidity;BME280_pressure;Samples;Min_cycle;Max_cycle;Signal;HPM_P1;HPM_P2
2023/06/06 00:00:54;;;;;;;15.00;7.55;;;12.30;99.90;;;;;;5131860;27;20042;-57
2023/06/06 00:03:21;;;;;;;10.40;5.35;;;12.20;99.90;;;;;;5130225;28;20078;-56
2023/06/06 00:05:48;;;;;;;14.13;7.35;;;12.20;99.90;;;;;;5113030;28;20494;-59
2023/06/06 00:08:14;;;;;;;18.60;5.88;;;12.20;99.90;;;;;;5131437;28;20043;-58
2023/06/06 00:10:40;;;;;;;12.95;7.25;;;12.10;99.90;;;;;;5131474;28;20167;-59
2023/06/06 00:13:05;;;;;;;14.60;8.10;;;12.10;99.90;;;;;;5112836;28;20036;-58
2023/06/06 00:15:31;;;;;;;11.82;7.07;;;12.10;99.90;;;;;;5133785;27;20386;-58
2023/06/06 00:17:59;;;;;;;10.55;5.53;;;12.10;99.90;;;;;;5135465;27;20378;-59
2023/06/06 00:20:32;;;;;;;13.40;7.53;;;12.00;99.90;;;;;;5135583;27;20454;-59
2023/06/06 00:22:59;;;;;;;12.25;5.47;;;12.00;99.90;;;;;;5135697;27;20039;-57
2023/06/06 00:25:25;;;;;;;10.90;5.47;;;11.90;99.90;;;;;;5135764;27;20034;-57
2023/06/06 00:27:53;;;;;;;12.65;7.18;;;11.80;99.90;;;;;;5134940;27;20081;-58
2023/06/06 00:30:19;;;;;;;10.00;6.93;;;11.80;99.90;;;;;;5135204;27;20039;-58
2023/06/06 00:32:44;;;;;;;10.27;7.45;;;11.80;99.90;;;;;;5135023;27;20038;-58
2023/06/06 00:35:10;;;;;;;11.38;7.80;;;11.80;99.90;;;;;;5133901;27;20123;-59
2023/06/06 00:37:36;;;;;;;11.07;7.90;;;11.80;99.90;;;;;;5134898;27;20080;-58
2023/06/06 00:40:01;;;;;;;12.25;8.00;;;11.70;99.90;;;;;;5134809;27;20543;-58
2023/06/06 00:42:27;;;;;;;11.57;7.32;;;11.70;99.90;;;;;;5134431;27;20050;-58
2023/06/06 00:44:53;;;;;;;11.43;8.15;;;11.80;99.90;;;;;;5133831;27;20030;-59
2023/06/06 00:47:19;;;;;;;11.05;7.93;;;11.70;99.90;;;;;;5116401;27;20038;-57
2023/06/06 00:53:26;;;;;;;14.77;5.30;;;11.70;99.90;;;;;;4385625;22;20052;-58
2023/06/06 00:55:52;;;;;;;11.73;7.75;;;11.60;99.90;;;;;;5080152;22;20048;-58
2023/06/06 00:58:18;;;;;;;11.93;7.93;;;11.60;99.90;;;;;;5069965;28;20051;-58
2023/06/06 01:00:45;;;;;;;13.02;7.80;;;11.60;99.90;;;;;;5073811;28;20040;-58
2023/06/06 01:03:10;;;;;;;15.75;8.45;;;11.50;99.90;;;;;;5073669;28;20468;-58
2023/06/06 01:05:39;;;;;;;15.55;8.02;;;11.50;99.90;;;;;;5073897;28;20074;-57
2023/06/06 01:08:07;;;;;;;22.30;5.95;;;11.50;99.90;;;;;;5073533;28;20234;-58
2023/06/06 01:10:39;;;;;;;21.63;8.82;;;11.50;99.90;;;;;;5073675;28;20058;-58
2023/06/06 01:13:13;;;;;;;21.50;8.80;;;11.50;99.90;;;;;;5073607;28;20048;-58
2023/06/06 01:15:55;;;;;;;18.85;8.40;;;11.50;99.90;;;;;;5073723;28;20070;-59
2023/06/06 01:18:21;;;;;;;17.40;8.90;;;11.50;99.90;;;;;;5073429;28;20036;-58
2023/06/06 01:20:49;;;;;;;14.65;5.90;;;11.40;99.90;;;;;;5064993;28;20048;-58
2023/06/06 01:23:15;;;;;;;14.57;7.90;;;11.40;99.90;;;;;;5073262;28;20064;-59
2023/06/06 01:25:44;;;;;;;14.23;8.35;;;11.30;99.90;;;;;;5072858;28;20095;-57
2023/06/06 01:28:16;;;;;;;13.23;8.90;;;11.40;99.90;;;;;;5072577;28;20035;-57
2023/06/06 01:30:43;;;;;;;18.48;6.00;;;11.30;99.90;;;;;;5073318;28;20055;-59
2023/06/06 01:33:33;;;;;;;26.65;9.65;;;11.20;99.90;;;;;;5073066;28;20094;-58
2023/06/06 01:36:19;;;;;;;19.15;9.45;;;11.20;99.90;;;;;;5073044;28;20444;-57
2023/06/06 01:38:48;;;;;;;28.20;7.18;;;11.20;99.90;;;;;;5072967;28;20102;-58
2023/06/06 01:41:16;;;;;;;19.73;9.02;;;11.20;99.90;;;;;;5073227;28;20484;-57
2023/06/06 01:43:44;;;;;;;15.32;5.68;;;11.10;99.90;;;;;;5072935;28;20070;-58
2023/06/06 01:46:12;;;;;;;18.23;8.38;;;11.10;99.90;;;;;;5073145;28;20045;-58
2023/06/06 01:48:38;;;;;;;18.58;8.70;;;11.10;99.90;;;;;;5073070;28;20063;-59
2023/06/06 01:51:05;;;;;;;17.50;5.93;;;11.10;99.90;;;;;;5072579;28;20089;-57
2023/06/06 01:53:31;;;;;;;13.50;7.78;;;11.00;99.90;;;;;;5071245;28;20044;-58
2023/06/06 01:55:56;;;;;;;18.50;5.78;;;11.00;99.90;;;;;;5072399;28;20049;-59
2023/06/06 01:58:23;;;;;;;13.48;8.32;;;11.00;99.90;;;;;;5072839;28;20116;-58
2023/06/06 02:00:48;;;;;;;17.60;8.60;;;10.90;99.90;;;;;;5072715;28;20041;-58
2023/06/06 02:03:14;;;;;;;18.05;8.63;;;10.90;99.90;;;;;;5071415;28;20375;-59
2023/06/06 02:05:40;;;;;;;11.13;5.20;;;10.90;99.90;;;;;;5072717;28;20162;-57
2023/06/06 02:08:06;;;;;;;15.07;8.32;;;10.90;99.90;;;;;;5072779;28;20063;-57
2023/06/06 02:10:32;;;;;;;13.10;8.30;;;10.90;99.90;;;;;;5072198;28;20040;-58
2023/06/06 02:12:57;;;;;;;19.55;8.57;;;10.90;99.90;;;;;;5072596;28;20344;-58
2023/06/06 02:15:26;;;;;;;15.63;5.72;;;10.90;99.90;;;;;;5072406;28;20083;-59
2023/06/06 02:17:52;;;;;;;14.88;5.47;;;10.90;99.90;;;;;;5072692;28;20036;-58
2023/06/06 02:20:18;;;;;;;16.58;8.43;;;10.80;99.90;;;;;;5072018;28;20373;-57
2023/06/06 02:22:44;;;;;;;16.65;5.90;;;10.80;99.90;;;;;;5069505;28;20105;-58
2023/06/06 02:25:13;;;;;;;15.50;8.48;;;10.80;99.90;;;;;;5071965;28;20044;-58
2023/06/06 02:27:39;;;;;;;16.35;9.10;;;10.80;99.90;;;;;;5072038;28;20488;-59
2023/06/06 02:30:09;;;;;;;13.13;5.40;;;10.80;99.90;;;;;;5070902;28;20047;-60
2023/06/06 02:32:34;;;;;;;15.98;8.57;;;10.70;99.90;;;;;;5072234;28;20231;-58
2023/06/06 02:35:01;;;;;;;17.73;6.03;;;10.70;99.90;;;;;;5072211;28;20109;-59
2023/06/06 02:37:26;;;;;;;17.90;5.93;;;10.70;99.90;;;;;;5070200;28;20048;-60
2023/06/06 02:39:53;;;;;;;12.70;8.07;;;10.70;99.90;;;;;;5071868;28;20488;-59
2023/06/06 02:42:19;;;;;;;16.58;5.57;;;10.70;99.90;;;;;;5072270;28;20037;-59
2023/06/06 02:44:45;;;;;;;15.23;6.32;;;10.70;99.90;;;;;;5071755;28;20063;-59
2023/06/06 02:47:11;;;;;;;17.25;6.50;;;10.60;99.90;;;;;;5071820;28;20043;-58
2023/06/06 02:49:36;;;;;;;14.95;8.40;;;10.60;99.90;;;;;;5071513;28;20036;-58
2023/06/06 02:52:02;;;;;;;16.20;5.68;;;10.60;99.90;;;;;;5071457;28;20499;-58
2023/06/06 02:54:28;;;;;;;15.65;8.38;;;10.50;99.90;;;;;;5070005;28;20045;-57
2023/06/06 02:56:53;;;;;;;14.32;9.00;;;10.50;99.90;;;;;;5071517;28;20064;-58
2023/06/06 02:59:19;;;;;;;12.88;9.50;;;10.50;99.90;;;;;;5071663;28;20431;-57
2023/06/06 03:01:46;;;;;;;16.77;9.80;;;10.50;99.90;;;;;;5071558;28;20114;-58
2023/06/06 03:04:12;;;;;;;13.60;9.70;;;10.50;99.90;;;;;;5064333;28;20049;-59
2023/06/06 03:06:41;;;;;;;16.85;10.32;;;10.40;99.90;;;;;;5070086;28;20440;-58
2023/06/06 03:09:08;;;;;;;20.85;10.73;;;10.40;99.90;;;;;;5071162;28;20067;-58
2023/06/06 03:11:34;;;;;;;22.92;10.13;;;10.40;99.90;;;;;;5070053;28;20115;-58
2023/06/06 03:14:00;;;;;;;21.60;7.07;;;10.40;99.90;;;;;;5071026;28;20059;-57
2023/06/06 03:16:26;;;;;;;20.98;7.03;;;10.30;99.90;;;;;;5071435;28;20025;-58
2023/06/06 03:18:55;;;;;;;17.40;6.93;;;10.30;99.90;;;;;;5069647;28;20045;-58
2023/06/06 03:21:21;;;;;;;18.55;7.18;;;10.30;99.90;;;;;;5070786;28;20476;-58
2023/06/06 03:23:47;;;;;;;20.00;7.18;;;10.30;99.90;;;;;;5071074;28;20040;-58
2023/06/06 03:26:13;;;;;;;20.23;10.60;;;10.30;99.90;;;;;;5071157;28;20036;-58
2023/06/06 03:28:39;;;;;;;16.45;10.02;;;10.40;99.90;;;;;;5071119;28;20047;-58
2023/06/06 03:31:07;;;;;;;18.40;10.70;;;10.30;99.90;;;;;;5070944;28;20051;-59
2023/06/06 03:33:35;;;;;;;15.45;10.40;;;10.40;99.90;;;;;;5070894;28;20093;-59
2023/06/06 03:36:01;;;;;;;14.73;6.43;;;10.40;99.90;;;;;;5067011;28;20086;-57
2023/06/06 03:38:27;;;;;;;23.08;6.93;;;10.40;99.90;;;;;;5069192;28;20432;-59
2023/06/06 03:40:53;;;;;;;16.10;10.50;;;10.30;99.90;;;;;;5070429;28;20043;-58
2023/06/06 03:43:19;;;;;;;16.08;10.23;;;10.30;99.90;;;;;;5070599;28;20380;-57
2023/06/06 03:45:45;;;;;;;17.13;11.20;;;10.40;99.90;;;;;;5071127;28;20044;-59
2023/06/06 03:48:10;;;;;;;18.70;10.70;;;10.30;99.90;;;;;;5070375;28;20108;-58
2023/06/06 03:50:36;;;;;;;17.13;6.95;;;10.40;99.90;;;;;;5069597;28;20062;-59
2023/06/06 03:53:02;;;;;;;15.98;6.85;;;10.40;99.90;;;;;;5070657;28;20037;-58
2023/06/06 03:55:33;;;;;;;14.75;9.30;;;10.30;99.90;;;;;;5070587;28;20564;-58
2023/06/06 03:57:59;;;;;;;13.40;6.38;;;10.40;99.90;;;;;;5070745;28;20033;-58
2023/06/06 04:00:25;;;;;;;18.00;10.30;;;10.30;99.90;;;;;;5068960;28;20051;-59
2023/06/06 04:02:51;;;;;;;14.13;6.63;;;10.40;99.90;;;;;;5070816;28;20400;-58
2023/06/06 04:05:18;;;;;;;15.13;9.40;;;10.40;99.90;;;;;;5068977;28;20036;-57
2023/06/06 04:07:44;;;;;;;13.85;6.82;;;10.40;99.90;;;;;;5052242;28;20040;-59
2023/06/06 04:10:10;;;;;;;13.88;10.05;;;10.40;99.90;;;;;;5070696;28;20040;-58
2023/06/06 04:12:36;;;;;;;14.43;6.70;;;10.50;99.90;;;;;;5070440;28;20044;-58
2023/06/06 04:15:02;;;;;;;16.33;6.95;;;10.50;99.90;;;;;;5070660;28;20037;-57
2023/06/06 04:17:28;;;;;;;16.60;7.55;;;10.50;99.90;;;;;;5070323;28;20119;-58
2023/06/06 04:19:55;;;;;;;17.52;7.72;;;10.50;99.90;;;;;;5070175;28;20436;-56
2023/06/06 04:22:25;;;;;;;17.77;10.50;;;10.50;99.90;;;;;;5070532;28;20040;-58
2023/06/06 04:24:50;;;;;;;21.70;10.32;;;10.60;99.90;;;;;;5070643;28;20085;-57
2023/06/06 04:27:18;;;;;;;21.63;7.40;;;10.70;99.90;;;;;;5068809;28;20508;-58
2023/06/06 04:29:44;;;;;;;16.08;7.13;;;10.70;99.90;;;;;;5069133;28;20040;-58
2023/06/06 04:32:13;;;;;;;13.55;7.07;;;10.70;99.90;;;;;;5070470;28;20142;-59
2023/06/06 04:34:40;;;;;;;20.17;7.63;;;10.70;99.90;;;;;;5070219;28;20059;-58
2023/06/06 04:37:07;;;;;;;17.42;7.63;;;10.70;99.90;;;;;;5070207;28;20044;-58
2023/06/06 04:39:34;;;;;;;16.83;7.35;;;10.70;99.90;;;;;;5070457;28;20532;-58
2023/06/06 04:42:07;;;;;;;21.98;8.02;;;10.70;99.90;;;;;;5068721;28;20094;-58
2023/06/06 04:44:33;;;;;;;18.48;7.78;;;10.70;99.90;;;;;;5070175;28;20094;-59
2023/06/06 04:47:03;;;;;;;16.48;7.60;;;10.80;99.90;;;;;;5068458;28;20052;-58
2023/06/06 04:49:39;;;;;;;15.55;7.35;;;10.80;99.90;;;;;;5069978;28;20040;-58
2023/06/06 04:52:10;;;;;;;18.77;7.60;;;10.90;99.90;;;;;;5069563;28;20045;-57
2023/06/06 04:54:37;;;;;;;17.70;9.98;;;10.90;99.90;;;;;;5068987;28;20470;-58
2023/06/06 04:57:05;;;;;;;14.30;6.57;;;10.90;99.90;;;;;;5068926;28;20048;-57
2023/06/06 04:59:32;;;;;;;14.80;7.28;;;11.00;99.90;;;;;;5070086;28;20044;-58
2023/06/06 05:02:01;;;;;;;17.67;7.85;;;11.10;99.90;;;;;;5072343;28;20072;-58
2023/06/06 05:04:29;;;;;;;15.82;6.85;;;11.10;99.90;;;;;;5072191;28;20044;-58
2023/06/06 05:06:56;;;;;;;14.73;6.72;;;11.20;99.90;;;;;;5073883;28;20040;-58
2023/06/06 05:09:21;;;;;;;16.90;9.50;;;11.20;99.90;;;;;;5073583;28;20068;-59
2023/06/06 05:11:49;;;;;;;15.20;6.72;;;11.30;99.90;;;;;;5073558;28;20137;-58
2023/06/06 05:14:23;;;;;;;14.15;6.78;;;11.40;99.90;;;;;;5073470;28;20607;-58
2023/06/06 05:16:57;;;;;;;13.00;8.25;;;11.50;99.90;;;;;;5073532;28;20182;-58
2023/06/06 05:19:23;;;;;;;12.73;6.22;;;11.50;99.90;;;;;;5073358;28;20044;-59
2023/06/06 05:21:48;;;;;;;14.68;6.45;;;11.50;99.90;;;;;;5072137;28;20108;-58
2023/06/06 05:24:14;;;;;;;12.70;6.25;;;11.60;99.90;;;;;;5072199;28;20487;-59
2023/06/06 05:26:41;;;;;;;14.30;8.43;;;11.60;99.90;;;;;;5073290;28;20047;-58
2023/06/06 05:29:07;;;;;;;12.45;8.02;;;11.70;99.90;;;;;;5073228;28;20045;-59
2023/06/06 05:31:33;;;;;;;12.27;7.75;;;11.70;99.90;;;;;;5073138;28;20401;-58
2023/06/06 05:34:00;;;;;;;17.17;6.50;;;11.80;99.90;;;;;;5073062;28;20048;-59
2023/06/06 05:36:26;;;;;;;12.55;6.25;;;11.90;99.90;;;;;;5073109;28;20119;-59
2023/06/06 05:38:52;;;;;;;13.88;6.10;;;11.90;99.90;;;;;;5073224;28;20113;-59
2023/06/06 05:41:18;;;;;;;11.07;5.75;;;11.90;99.90;;;;;;5073231;28;20065;-57
2023/06/06 05:43:47;;;;;;;14.05;7.53;;;12.00;99.90;;;;;;5072426;28;20123;-59
2023/06/06 05:46:13;;;;;;;12.20;5.82;;;12.10;99.90;;;;;;5072896;28;20041;-58
2023/06/06 05:48:40;;;;;;;13.93;5.75;;;12.10;99.90;;;;;;5072803;28;20090;-58
2023/06/06 05:51:05;;;;;;;17.05;6.68;;;12.20;99.90;;;;;;5072801;28;20464;-58
2023/06/06 05:53:31;;;;;;;13.23;5.65;;;12.20;99.90;;;;;;5072718;28;20163;-57
2023/06/06 05:55:57;;;;;;;12.05;5.70;;;12.20;99.90;;;;;;5072390;28;20048;-58
2023/06/06 05:58:23;;;;;;;12.13;6.85;;;12.30;99.90;;;;;;5071532;28;20098;-58
2023/06/06 06:00:48;;;;;;;12.60;5.00;;;12.40;99.90;;;;;;5073046;28;20036;-57
2023/06/06 06:03:15;;;;;;;14.73;6.90;;;12.50;99.90;;;;;;5072419;28;20461;-58
2023/06/06 06:05:40;;;;;;;13.30;6.57;;;12.50;99.90;;;;;;5072301;28;20044;-57
2023/06/06 06:08:07;;;;;;;15.48;5.95;;;12.50;99.90;;;;;;5070867;28;20040;-58
2023/06/06 06:10:37;;;;;;;13.45;6.45;;;12.60;99.90;;;;;;5072605;28;20075;-57
2023/06/06 06:13:03;;;;;;;13.48;6.00;;;12.70;99.90;;;;;;5070582;28;20048;-58
2023/06/06 06:15:30;;;;;;;13.73;6.60;;;12.40;99.90;;;;;;5071965;28;20115;-58
2023/06/06 06:17:56;;;;;;;12.40;6.43;;;12.70;99.90;;;;;;5072234;28;20044;-58
2023/06/06 06:20:22;;;;;;;13.57;6.47;;;12.80;99.90;;;;;;5070439;28;20116;-58
2023/06/06 06:22:48;;;;;;;13.50;6.07;;;12.90;99.90;;;;;;5072202;28;20460;-58
2023/06/06 06:25:14;;;;;;;11.73;6.00;;;12.90;99.90;;;;;;5070697;28;20040;-59
2023/06/06 06:27:44;;;;;;;13.63;5.82;;;13.00;99.90;;;;;;5069709;28;20105;-58
2023/06/06 06:30:11;;;;;;;14.18;4.63;;;13.10;99.90;;;;;;5071808;28;20093;-58
2023/06/06 06:32:38;;;;;;;12.25;5.10;;;13.10;99.90;;;;;;5070111;28;20028;-59
2023/06/06 06:35:05;;;;;;;15.45;5.40;;;13.10;99.90;;;;;;5071804;28;20506;-58
2023/06/06 06:37:33;;;;;;;11.90;5.22;;;13.20;99.90;;;;;;5070254;28;20041;-57
2023/06/06 06:39:59;;;;;;;15.32;5.32;;;13.20;99.90;;;;;;5071226;28;20037;-57
2023/06/06 06:42:26;;;;;;;12.70;6.15;;;13.30;99.90;;;;;;5071488;28;20391;-59
2023/06/06 06:44:52;;;;;;;13.35;5.68;;;13.40;99.90;;;;;;5070281;28;20074;-58
2023/06/06 06:47:19;;;;;;;9.25;4.55;;;13.40;99.90;;;;;;5071199;28;20052;-57
2023/06/06 06:49:45;;;;;;;12.48;5.63;;;13.50;99.90;;;;;;5068259;28;20045;-57
2023/06/06 06:52:11;;;;;;;14.30;5.25;;;13.60;99.90;;;;;;5066958;28;20048;-58
2023/06/06 06:54:54;;;;;;;12.07;5.25;;;13.60;99.90;;;;;;5065314;28;20439;-57
2023/06/06 06:57:21;;;;;;;15.95;5.00;;;13.70;99.90;;;;;;5065940;28;20051;-58
2023/06/06 06:59:48;;;;;;;13.45;6.45;;;13.70;99.90;;;;;;5067036;28;20037;-57
2023/06/06 07:02:14;;;;;;;14.48;5.10;;;13.90;99.90;;;;;;5067188;28;20033;-59
2023/06/06 07:04:39;;;;;;;12.05;5.40;;;13.90;99.90;;;;;;5067216;28;20426;-57
2023/06/06 07:07:06;;;;;;;13.85;5.30;;;14.00;99.90;;;;;;5066753;28;20055;-59
2023/06/06 07:09:32;;;;;;;14.45;5.88;;;14.00;99.90;;;;;;5065600;28;20036;-58
2023/06/06 07:11:58;;;;;;;11.68;5.60;;;14.10;99.90;;;;;;5066881;28;20145;-57
2023/06/06 07:14:28;;;;;;;11.95;5.45;;;14.20;99.90;;;;;;5064565;28;20064;-58
2023/06/06 07:16:54;;;;;;;11.20;5.22;;;14.20;99.90;;;;;;5063601;28;20045;-58
2023/06/06 07:19:20;;;;;;;10.35;5.45;;;14.30;99.90;;;;;;5064645;28;20064;-58
2023/06/06 07:21:46;;;;;;;13.10;5.25;;;14.40;99.90;;;;;;5066753;28;20028;-58
2023/06/06 07:24:12;;;;;;;14.18;5.10;;;14.40;99.90;;;;;;5066586;28;20037;-59
2023/06/06 07:26:38;;;;;;;10.32;5.45;;;14.50;99.90;;;;;;5066496;28;20753;-58
2023/06/06 07:29:04;;;;;;;13.00;5.38;;;14.60;99.90;;;;;;5066440;28;20068;-58
2023/06/06 07:31:30;;;;;;;11.98;5.97;;;14.60;99.90;;;;;;5066685;28;20119;-58
2023/06/06 07:33:58;;;;;;;12.43;6.03;;;14.70;99.90;;;;;;5066659;28;20083;-58
2023/06/06 07:36:25;;;;;;;13.93;5.75;;;14.70;99.90;;;;;;5065525;28;20819;-58
2023/06/06 07:38:51;;;;;;;12.20;5.40;;;14.80;99.90;;;;;;5066165;28;20131;-58
2023/06/06 07:41:16;;;;;;;12.23;5.97;;;14.90;99.90;;;;;;5064786;28;20116;-58
2023/06/06 07:43:42;;;;;;;14.45;6.07;;;14.90;99.90;;;;;;5065319;28;20032;-59
2023/06/06 07:46:08;;;;;;;14.57;5.78;;;15.00;99.90;;;;;;5064641;28;20044;-59
2023/06/06 07:48:34;;;;;;;15.63;6.35;;;15.10;99.90;;;;;;5066298;28;20051;-60
2023/06/06 07:51:00;;;;;;;13.07;5.82;;;15.20;99.90;;;;;;5065900;28;20029;-58
2023/06/06 07:53:25;;;;;;;10.60;5.35;;;15.20;99.90;;;;;;5065766;28;20040;-58
2023/06/06 07:55:56;;;;;;;13.30;5.60;;;15.30;99.90;;;;;;5064706;28;20049;-59
2023/06/06 07:58:26;;;;;;;17.20;5.63;;;15.40;99.90;;;;;;5065336;28;20127;-60
2023/06/06 08:00:51;;;;;;;11.82;5.13;;;15.50;99.90;;;;;;5066392;28;20079;-59
2023/06/06 08:03:17;;;;;;;10.35;5.43;;;15.50;99.90;;;;;;5065616;28;20082;-56
2023/06/06 08:05:43;;;;;;;17.75;5.13;;;15.60;99.90;;;;;;5065256;28;20127;-59
2023/06/06 08:08:08;;;;;;;13.75;4.93;;;15.60;99.90;;;;;;5066073;28;20510;-59
2023/06/06 08:10:34;;;;;;;10.27;5.10;;;15.70;99.90;;;;;;5064864;28;20040;-58
2023/06/06 08:13:00;;;;;;;9.55;5.30;;;15.70;99.90;;;;;;5066511;28;20189;-59
2023/06/06 08:15:27;;;;;;;9.40;5.80;;;15.80;99.90;;;;;;5065227;28;20032;-59
2023/06/06 08:17:53;;;;;;;12.35;5.50;;;15.90;99.90;;;;;;5066484;28;20045;-58
2023/06/06 08:20:19;;;;;;;13.55;5.80;;;15.90;99.90;;;;;;5066037;28;20041;-58
2023/06/06 08:22:50;;;;;;;10.38;5.93;;;16.00;99.90;;;;;;5066795;28;20036;-58
2023/06/06 08:25:16;;;;;;;10.00;5.30;;;16.10;99.90;;;;;;5065717;28;20036;-58
2023/06/06 08:27:42;;;;;;;11.50;4.70;;;16.10;99.90;;;;;;5065407;28;20029;-58
2023/06/06 08:30:09;;;;;;;12.48;5.43;;;16.20;99.90;;;;;;5064963;28;20089;-58
2023/06/06 08:32:35;;;;;;;10.70;5.15;;;16.30;99.90;;;;;;5064963;28;20060;-59
2023/06/06 08:35:04;;;;;;;12.20;5.32;;;16.40;99.90;;;;;;5066469;28;20040;-58
2023/06/06 08:37:30;;;;;;;15.10;5.53;;;16.50;99.90;;;;;;5069918;28;20025;-58
2023/06/06 08:39:56;;;;;;;12.48;5.68;;;16.60;99.90;;;;;;5069061;28;20506;-58
2023/06/06 08:42:24;;;;;;;12.98;5.10;;;16.60;99.90;;;;;;5068178;28;20033;-52
2023/06/06 08:44:52;;;;;;;13.35;5.40;;;16.70;99.90;;;;;;5068316;28;20036;-58
2023/06/06 08:47:23;;;;;;;9.07;5.85;;;16.80;99.90;;;;;;5065838;28;20044;-58
2023/06/06 08:49:50;;;;;;;13.80;4.75;;;16.90;99.90;;;;;;5065434;28;20037;-59
2023/06/06 08:52:16;;;;;;;13.35;5.40;;;16.90;99.90;;;;;;5067251;28;20527;-60
2023/06/06 08:54:45;;;;;;;10.18;5.18;;;17.00;99.90;;;;;;5070023;28;20044;-57
2023/06/06 08:57:11;;;;;;;16.38;6.00;;;17.10;99.90;;;;;;5068424;28;20056;-59
2023/06/06 08:59:37;;;;;;;12.38;5.75;;;17.20;99.90;;;;;;5068732;28;20032;-58
2023/06/06 09:02:07;;;;;;;9.57;5.40;;;17.20;99.90;;;;;;5068833;28;20033;-59
2023/06/06 09:04:34;;;;;;;13.23;5.65;;;17.30;99.90;;;;;;5067521;28;20071;-58
2023/06/06 09:07:12;;;;;;;12.35;6.30;;;17.40;99.90;;;;;;5066007;28;20044;-59
2023/06/06 09:09:40;;;;;;;14.70;5.88;;;17.50;99.90;;;;;;5064444;28;20040;-59
2023/06/06 09:12:07;;;;;;;13.65;5.32;;;17.70;99.90;;;;;;5067473;28;20115;-58
2023/06/06 09:14:33;;;;;;;10.65;5.25;;;17.90;99.90;;;;;;5067903;28;20043;-59
2023/06/06 09:16:59;;;;;;;11.70;5.65;;;18.00;99.90;;;;;;5066323;28;20028;-58
2023/06/06 09:19:25;;;;;;;12.05;5.47;;;18.20;99.90;;;;;;5072101;28;20044;-59
2023/06/06 09:21:52;;;;;;;14.20;5.60;;;18.40;99.90;;;;;;5072758;28;20044;-58
2023/06/06 09:24:18;;;;;;;11.55;5.57;;;18.50;99.90;;;;;;5073248;28;20141;-59
2023/06/06 09:26:43;;;;;;;11.65;5.22;;;18.70;99.90;;;;;;5073446;28;20037;-58
2023/06/06 09:29:12;;;;;;;11.52;4.88;;;18.80;99.90;;;;;;5073221;28;20049;-58
2023/06/06 09:31:38;;;;;;;9.90;4.68;;;18.90;99.90;;;;;;5073602;28;20123;-58
2023/06/06 09:34:06;;;;;;;13.07;4.88;;;19.10;99.90;;;;;;5073038;28;20116;-59
2023/06/06 09:36:32;;;;;;;10.95;4.88;;;19.30;99.90;;;;;;5072999;28;20068;-57
2023/06/06 09:39:13;;;;;;;9.25;4.55;;;19.30;99.90;;;;;;5073254;28;20071;-58
2023/06/06 09:41:48;;;;;;;9.77;4.75;;;19.50;99.90;;;;;;5060599;28;20029;-58
2023/06/06 09:44:23;;;;;;;12.82;4.53;;;19.70;99.90;;;;;;5073363;28;20044;-58
2023/06/06 09:46:49;;;;;;;12.32;4.65;;;19.70;99.90;;;;;;5072572;28;20655;-58
2023/06/06 09:49:15;;;;;;;12.77;4.60;;;19.70;99.90;;;;;;5072355;28;20479;-58
2023/06/06 09:51:43;;;;;;;8.90;5.05;;;19.70;99.90;;;;;;5072497;28;20048;-58
2023/06/06 09:54:10;;;;;;;12.05;4.57;;;19.80;99.90;;;;;;5072765;28;20434;-57
2023/06/06 09:56:40;;;;;;;10.68;4.80;;;19.80;99.90;;;;;;5072554;28;20040;-59
2023/06/06 09:59:08;;;;;;;10.65;5.47;;;19.90;99.90;;;;;;5071366;28;20040;-58
2023/06/06 10:01:37;;;;;;;11.75;4.78;;;19.90;99.90;;;;;;5072481;28;20123;-58
2023/06/06 10:04:04;;;;;;;11.38;4.18;;;20.00;99.90;;;;;;5072817;28;20068;-60
2023/06/06 10:06:38;;;;;;;11.73;4.70;;;20.20;99.90;;;;;;5068608;28;20120;-54
2023/06/06 10:09:06;;;;;;;;;;;20.30;99.90;;;;;;5069611;28;20407;-57
2023/06/06 10:11:36;;;;;;;8.48;5.10;;;20.40;99.90;;;;;;5072576;28;19920;-58
2023/06/06 10:14:10;;;;;;;9.55;4.72;;;20.30;99.90;;;;;;5072033;28;20051;-58
2023/06/06 10:16:35;;;;;;;10.95;4.13;;;20.40;99.90;;;;;;5067394;28;20045;-57
2023/06/06 10:19:02;;;;;;;10.57;5.15;;;20.40;99.90;;;;;;5069324;28;20046;-58
2023/06/06 10:21:30;;;;;;;9.88;4.00;;;20.50;99.90;;;;;;5068174;28;20817;-59
2023/06/06 10:23:56;;;;;;;12.70;4.43;;;20.60;99.90;;;;;;5063031;28;20037;-57
2023/06/06 10:26:35;;;;;;;12.00;4.43;;;20.70;99.90;;;;;;5069937;28;20479;-58
2023/06/06 10:29:27;;;;;;;9.70;4.05;;;20.70;99.90;;;;;;5068039;28;20043;-57
2023/06/06 10:32:12;;;;;;;9.43;3.67;;;20.80;99.90;;;;;;5069814;28;20094;-58
2023/06/06 10:34:40;;;;;;;11.57;5.10;;;20.90;99.90;;;;;;5065767;28;20547;-58
2023/06/06 10:37:21;;;;;;;11.10;5.03;;;21.00;99.90;;;;;;5069635;28;20047;-57
2023/06/06 10:39:59;;;;;;;10.35;5.25;;;21.00;99.90;;;;;;5065881;28;20137;-57
2023/06/06 10:42:45;;;;;;;9.60;4.93;;;21.00;99.90;;;;;;5069018;28;20040;-59
2023/06/06 10:45:11;;;;;;;9.80;4.72;;;21.20;99.90;;;;;;5069766;28;20404;-59
2023/06/06 10:47:44;;;;;;;15.45;4.78;;;21.20;99.90;;;;;;5067457;28;20040;-58
2023/06/06 10:50:13;;;;;;;10.63;4.45;;;21.30;99.90;;;;;;5069443;28;20044;-58
2023/06/06 10:52:58;;;;;;;12.15;4.60;;;21.30;99.90;;;;;;5069937;28;20045;-59
2023/06/06 10:55:24;;;;;;;10.20;4.90;;;21.40;99.90;;;;;;5066623;28;20040;-58
2023/06/06 10:58:10;;;;;;;7.60;4.07;;;21.40;99.90;;;;;;5070047;28;20181;-58
2023/06/06 11:00:46;;;;;;;8.80;4.20;;;21.60;99.90;;;;;;5067918;28;20503;-58
2023/06/06 11:03:14;;;;;;;9.77;4.22;;;21.70;99.90;;;;;;5069156;28;20500;-59
2023/06/06 11:06:12;;;;;;;10.82;3.85;;;21.80;99.90;;;;;;5069836;28;20047;-58
2023/06/06 11:08:39;;;;;;;11.35;5.03;;;21.90;99.90;;;;;;5069894;28;20052;-58
2023/06/06 11:11:26;;;;;;;8.18;4.35;;;22.00;99.90;;;;;;5069739;28;20033;-58
2023/06/06 11:13:59;;;;;;;8.85;4.07;;;22.00;99.90;;;;;;5067587;28;20063;-58
2023/06/06 11:16:38;;;;;;;10.07;4.65;;;22.10;99.90;;;;;;5069898;28;20060;-58
2023/06/06 11:19:08;;;;;;;9.43;4.10;;;22.20;99.90;;;;;;5069118;28;20044;-58
2023/06/06 11:21:36;;;;;;;7.65;3.80;;;22.30;99.90;;;;;;5068412;28;20391;-58
2023/06/06 11:24:02;;;;;;;10.13;4.38;;;22.50;99.90;;;;;;5070344;28;20040;-58
2023/06/06 11:26:28;;;;;;;9.30;4.07;;;22.70;99.90;;;;;;5069208;28;20029;-59
2023/06/06 11:28:58;;;;;;;8.65;4.50;;;22.80;99.90;;;;;;5070674;28;20036;-59
2023/06/06 11:31:24;;;;;;;7.78;4.30;;;22.90;99.90;;;;;;5070172;28;20131;-58
2023/06/06 11:33:50;;;;;;;9.45;4.25;;;23.00;99.90;;;;;;5069810;28;20132;-58
2023/06/06 11:36:18;;;;;;;8.48;3.45;;;23.00;99.90;;;;;;5069345;28;20032;-58
2023/06/06 11:38:43;;;;;;;9.90;4.18;;;23.00;99.90;;;;;;5068551;28;20052;-59
2023/06/06 11:41:09;;;;;;;9.30;3.78;;;23.10;99.90;;;;;;5069312;28;20135;-58
2023/06/06 11:43:35;;;;;;;9.45;3.70;;;23.10;99.90;;;;;;5070027;28;20044;-58
2023/06/06 11:46:05;;;;;;;9.32;4.03;;;23.10;99.90;;;;;;5070560;28;20055;-58
2023/06/06 11:48:31;;;;;;;12.38;3.78;;;23.20;99.90;;;;;;5071008;28;20036;-58
2023/06/06 11:50:57;;;;;;;6.60;3.65;;;23.20;99.90;;;;;;5069833;28;20047;-57
2023/06/06 11:53:30;;;;;;;9.10;3.95;;;23.40;99.90;;;;;;5052646;28;20040;-57
2023/06/06 11:55:57;;;;;;;6.53;4.00;;;23.50;99.90;;;;;;5070404;28;20064;-58
2023/06/06 11:58:23;;;;;;;7.93;4.10;;;23.60;99.90;;;;;;5070846;28;20040;-58
2023/06/06 12:00:55;;;;;;;8.25;4.18;;;23.70;99.80;;;;;;5067434;28;20419;-57
2023/06/06 12:03:21;;;;;;;11.40;4.25;;;23.80;99.80;;;;;;5069955;28;20392;-57
2023/06/06 12:06:08;;;;;;;8.52;4.22;;;23.90;99.60;;;;;;5071073;28;20056;-59
2023/06/06 12:08:37;;;;;;;8.98;3.85;;;24.00;99.20;;;;;;5070675;28;20127;-58
2023/06/06 12:11:26;;;;;;;9.18;3.75;;;24.00;99.40;;;;;;5068647;28;20045;-58
2023/06/06 12:13:53;;;;;;;9.20;3.80;;;24.10;99.40;;;;;;5070661;28;20098;-58
2023/06/06 12:16:28;;;;;;;8.98;3.88;;;24.10;99.40;;;;;;5069210;28;20431;-58
2023/06/06 12:18:54;;;;;;;9.88;4.55;;;24.20;99.00;;;;;;5070565;28;20438;-58
2023/06/06 12:21:21;;;;;;;8.95;4.10;;;24.20;98.90;;;;;;5069222;28;20507;-59
2023/06/06 12:23:48;;;;;;;14.00;4.50;;;24.20;98.80;;;;;;5070349;28;20553;-59
2023/06/06 12:26:16;;;;;;;10.52;4.03;;;24.30;99.00;;;;;;5069658;28;20119;-58
2023/06/06 12:28:57;;;;;;;13.38;4.28;;;24.30;98.80;;;;;;5069032;28;20040;-59
2023/06/06 12:31:24;;;;;;;9.45;4.47;;;24.40;98.20;;;;;;5069461;28;20056;-59
2023/06/06 12:33:51;;;;;;;11.82;4.80;;;24.50;98.50;;;;;;5069275;28;20056;-59
2023/06/06 12:36:19;;;;;;;8.75;4.55;;;24.60;98.10;;;;;;5069127;28;20503;-58
2023/06/06 12:39:00;;;;;;;9.35;4.93;;;24.60;98.00;;;;;;5051820;28;20143;-58
2023/06/06 12:41:41;;;;;;;7.35;3.72;;;24.60;97.60;;;;;;5069232;28;20033;-59
2023/06/06 12:44:15;;;;;;;12.68;5.00;;;24.60;97.90;;;;;;5069708;28;20048;-59
2023/06/06 12:46:41;;;;;;;;;;;24.70;97.70;;;;;;5069101;28;20399;-59